Time;durP1;ratioP1;P1;durP2;ratioP2;P2;SDS_P1;SDS_P2;PMS_P1;PMS_P2;Temp;Humidity;BMP_temperature;BMP_pressure;BME280_temperature;BME280_humidity;BME280_pressure;Samples;Min_cycle;Max_cycle;Signal;HPM_P1;HPM_P2
2022/12/26 00:02:23;;;;;;;;;;;11.80;1.00;;;;;;5061226;28;19913;-80
2022/12/26 00:04:59;;;;;;;;;;;11.90;1.00;;;;;;5042059;28;20024;-80
2022/12/26 00:07:29;;;;;;;;;;;11.90;1.00;;;;;;5033713;28;19916;-80
2022/12/26 00:09:59;;;;;;;;;;;11.90;1.00;;;;;;5049940;28;19913;-80
2022/12/26 00:12:29;;;;;;;;;;;11.80;1.00;;;;;;5052583;28;19959;-80
2022/12/26 00:14:54;;;;;;;;;;;11.80;1.00;;;;;;5047792;28;19965;-81
2022/12/26 00:17:20;;;;;;;;;;;11.80;1.00;;;;;;5046522;28;20011;-77
2022/12/26 00:19:46;;;;;;;;;;;11.80;1.00;;;;;;5036256;28;19917;-77
2022/12/26 00:22:11;;;;;;;;;;;11.90;1.00;;;;;;5037252;28;19913;-77
2022/12/26 00:24:41;;;;;;;;;;;12.00;1.00;;;;;;5044064;28;19919;-78
2022/12/26 00:27:11;;;;;;;;;;;11.90;1.00;;;;;;5048220;28;19916;-77
2022/12/26 00:29:47;;;;;;;;;;;11.90;1.00;;;;;;5041954;28;20007;-77
2022/12/26 00:32:17;;;;;;;;;;;12.00;1.00;;;;;;5044697;28;19913;-78
2022/12/26 00:34:47;;;;;;;;;;;12.00;1.00;;;;;;5043564;28;19916;-77
2022/12/26 00:37:12;;;;;;;;;;;12.00;1.00;;;;;;5070766;28;19921;-78
2022/12/26 00:39:38;;;;;;;;;;;12.00;1.00;;;;;;5055165;28;20288;-77
2022/12/26 00:42:17;;;;;;;;;;;12.00;1.00;;;;;;5043497;28;19986;-77
2022/12/26 00:44:42;;;;;;;;;;;12.00;1.00;;;;;;5035990;28;19909;-77
2022/12/26 00:47:29;;;;;;;;;;;12.10;1.00;;;;;;5050721;28;20327;-80
2022/12/26 00:50:17;;;;;;;;;;;12.00;1.00;;;;;;5051196;28;19909;-80
2022/12/26 00:52:59;;;;;;;;;;;12.00;1.00;;;;;;5043261;28;19909;-80
2022/12/26 00:55:35;;;;;;;;;;;12.00;1.00;;;;;;5051432;28;19909;-80
2022/12/26 00:58:05;;;;;;;;;;;11.90;1.00;;;;;;5036818;28;19920;-80
2022/12/26 01:00:35;;;;;;;;;;;11.90;1.00;;;;;;5038436;28;19920;-80
2022/12/26 01:03:01;;;;;;;;;;;11.90;1.00;;;;;;5049800;28;19959;-77
2022/12/26 01:05:47;;;;;;;;;;;11.80;1.00;;;;;;5055814;28;20016;-77
2022/12/26 01:08:35;;;;;;;;;;;11.80;1.00;;;;;;5051439;28;19916;-77
2022/12/26 01:11:12;;;;;;;;;;;11.80;1.00;;;;;;5047894;28;20000;-77
2022/12/26 01:13:37;;;;;;;;;;;11.80;1.00;;;;;;5036971;28;19920;-77
2022/12/26 01:16:11;;;;;;;;;;;11.80;1.00;;;;;;5039091;28;19908;-78
2022/12/26 01:18:36;;;;;;;;;;;11.90;1.00;;;;;;5051391;28;19970;-77
2022/12/26 01:21:10;;;;;;;;;;;11.80;1.00;;;;;;5052912;28;19909;-78
2022/12/26 01:23:53;;;;;;;;;;;11.80;1.00;;;;;;5047761;28;19909;-77
2022/12/26 01:26:29;;;;;;;;;;;11.90;1.00;;;;;;5053128;28;20015;-77
2022/12/26 01:29:11;;;;;;;;;;;11.90;1.00;;;;;;5051652;28;19909;-77
2022/12/26 01:31:47;;;;;;;;;;;11.90;1.00;;;;;;5048130;28;19959;-77
2022/12/26 01:34:17;;;;;;;;;;;12.00;1.00;;;;;;5041079;28;19909;-78
2022/12/26 01:36:42;;;;;;;;;;;12.00;1.00;;;;;;5053233;28;19921;-77
2022/12/26 01:39:08;;;;;;;;;;;12.00;1.00;;;;;;5053573;28;19974;-77
2022/12/26 01:42:05;;;;;;;;;;;12.00;1.00;;;;;;5042851;28;19909;-77
2022/12/26 01:45:05;;;;;;;;;;;12.00;1.00;;;;;;5036026;28;19959;-78
2022/12/26 01:47:35;;;;;;;;;;;12.00;1.00;;;;;;5041480;28;19920;-77
2022/12/26 01:50:06;;;;;;;;;;;12.00;1.00;;;;;;5037915;28;20010;-77
2022/12/26 01:52:36;;;;;;;;;;;12.00;1.00;;;;;;5055501;28;20341;-77
2022/12/26 01:55:07;;;;;;;;;;;12.00;1.00;;;;;;5041364;28;19909;-78
2022/12/26 01:57:39;;;;;;;;;;;12.00;1.00;;;;;;5047817;28;19924;-77
2022/12/26 02:00:05;;;;;;;;;;;12.00;1.00;;;;;;5037560;28;19963;-77
2022/12/26 02:05:36;;;;;;;;;;;12.00;1.00;;;;;;5049312;28;19919;-77
2022/12/26 02:08:11;;;;;;;;;;;12.00;1.00;;;;;;5041706;28;19909;-77
2022/12/26 02:10:48;;;;;;;;;;;12.10;1.00;;;;;;5042101;28;20268;-78
2022/12/26 02:13:29;;;;;;;;;;;12.00;1.00;;;;;;5035342;28;19913;-77
2022/12/26 02:15:55;;;;;;;;;;;12.10;1.00;;;;;;5058067;28;20412;-77
2022/12/26 02:18:23;;;;;;;;;;;12.10;1.00;;;;;;5043507;28;19925;-80
2022/12/26 02:21:11;;;;;;;;;;;12.10;1.00;;;;;;5037841;28;19909;-80
2022/12/26 02:24:05;;;;;;;;;;;12.10;1.00;;;;;;5043935;28;20368;-80
2022/12/26 02:26:59;;;;;;;;;;;12.00;1.00;;;;;;5051450;28;19916;-80
2022/12/26 02:29:38;;;;;;;;;;;12.00;1.00;;;;;;5051780;28;20352;-80
2022/12/26 02:32:17;;;;;;;;;;;12.10;1.00;;;;;;5046157;28;19916;-77
2022/12/26 02:34:50;;;;;;;;;;;12.00;1.00;;;;;;5043521;28;20318;-77
2022/12/26 02:37:15;;;;;;;;;;;12.00;1.00;;;;;;5040291;28;19921;-78
2022/12/26 02:39:47;;;;;;;;;;;12.00;1.00;;;;;;5052822;28;19923;-78
2022/12/26 02:42:35;;;;;;;;;;;12.00;1.00;;;;;;5037057;28;19921;-77
2022/12/26 02:48:17;;;;;;;;;;;12.00;1.00;;;;;;5048384;28;20288;-80
2022/12/26 03:14:40;;;;;;;;;;;12.10;1.00;;;;;;5035353;28;20460;-77
2022/12/26 03:17:19;;;;;;;;;;;12.10;1.00;;;;;;5043961;28;19908;-78
2022/12/26 03:19:58;;;;;;;;;;;12.10;1.00;;;;;;5052556;28;19909;-77
2022/12/26 03:22:32;;;;;;;;;;;12.10;1.00;;;;;;5035571;28;20000;-77
2022/12/26 03:27:44;;;;;;;;;;;12.20;1.00;;;;;;5035982;28;19920;-77
2022/12/26 04:20:35;;;;;;;;;;;12.20;1.00;;;;;;5055145;28;20288;-80
2022/12/26 04:46:53;;;;;;;;;;;12.00;1.00;;;;;;5038407;28;19920;-77
2022/12/26 04:58:13;;;;;;;;;;;12.20;1.00;;;;;;5070196;28;20268;-80
2022/12/26 05:09:59;;;;;;;;;;;12.20;1.00;;;;;;5010865;28;19916;-80
2022/12/26 05:12:41;;;;;;;;;;;12.20;1.00;;;;;;4998331;28;20324;-80
2022/12/26 05:15:11;;;;;;;;;;;12.20;1.00;;;;;;5007982;28;19909;-80
2022/12/26 05:29:17;;;;;;;;;;;12.30;1.00;;;;;;5007514;28;19933;-78
2022/12/26 05:31:53;;;;;;;;;;;12.30;1.00;;;;;;5014447;28;20008;-78
2022/12/26 05:34:35;;;;;;;;;;;12.40;1.00;;;;;;5014124;28;19913;-77
2022/12/26 05:37:23;;;;;;;;;;;12.30;1.00;;;;;;5009496;28;19917;-77
2022/12/26 05:40:05;;;;;;;;;;;12.30;1.00;;;;;;5001750;28;19918;-77
2022/12/26 05:42:35;;;;;;;;;;;12.40;1.00;;;;;;5043853;28;19913;-77
2022/12/26 05:45:05;;;;;;;;;;;12.50;1.00;;;;;;5040388;28;19959;-77
2022/12/26 05:47:35;;;;;;;;;;;12.50;1.00;;;;;;5061003;28;19908;-77
2022/12/26 05:50:17;;;;;;;;;;;12.50;1.00;;;;;;5051830;28;19916;-81
2022/12/26 05:52:55;;;;;;;;;;;12.50;1.00;;;;;;5036673;28;19956;-80
2022/12/26 05:55:23;;;;;;;;;;;12.40;1.00;;;;;;5044129;28;19916;-80
2022/12/26 05:57:53;;;;;;;;;;;12.50;1.00;;;;;;5050985;28;19923;-80
2022/12/26 06:03:22;;;;;;;;;;;12.60;1.00;;;;;;5035431;28;19916;-80
2022/12/26 06:05:59;;;;;;;;;;;12.50;1.00;;;;;;5049979;28;19909;-80
2022/12/26 06:11:53;;;;;;;;;;;12.50;1.00;;;;;;5044362;28;20272;-81
2022/12/26 06:14:23;;;;;;;;;;;12.50;1.00;;;;;;5048408;28;19959;-81
2022/12/26 06:17:11;;;;;;;;;;;12.50;1.00;;;;;;5039162;28;19913;-80
2022/12/26 06:19:41;;;;;;;;;;;12.60;1.00;;;;;;5045187;28;20414;-80
2022/12/26 06:22:11;;;;;;;;;;;12.50;1.00;;;;;;5041950;28;20011;-81
2022/12/26 06:24:59;;;;;;;;;;;12.50;1.00;;;;;;5044375;28;19960;-80
2022/12/26 06:27:25;;;;;;;;;;;12.60;1.00;;;;;;5062009;28;20443;-81
2022/12/26 06:29:53;;;;;;;;;;;12.50;1.00;;;;;;5058773;28;19952;-80
2022/12/26 06:35:21;;;;;;;;;;;12.60;1.00;;;;;;5035295;28;20387;-78
2022/12/26 06:37:47;;;;;;;;;;;12.60;1.00;;;;;;5033209;28;19924;-77
2022/12/26 06:43:41;;;;;;;;;;;12.50;1.00;;;;;;5051402;28;19967;-77
2022/12/26 06:46:08;;;;;;;;;;;12.50;1.00;;;;;;5048746;28;20012;-77
2022/12/26 06:48:41;;;;;;;;;;;12.50;1.00;;;;;;5050223;28;19935;-77
2022/12/26 06:51:11;;;;;;;;;;;12.60;1.00;;;;;;5049773;28;19913;-77
2022/12/26 06:53:41;;;;;;;;;;;12.70;1.00;;;;;;5050677;28;20364;-77
2022/12/26 06:56:24;;;;;;;;;;;12.70;1.00;;;;;;5053261;28;20426;-78
2022/12/26 06:58:54;;;;;;;;;;;12.60;1.00;;;;;;5041971;28;20280;-78
2022/12/26 07:01:20;;;;;;;;;;;12.60;1.00;;;;;;5040834;28;19960;-77
2022/12/26 07:03:47;;;;;;;;;;;12.60;1.00;;;;;;5046573;28;19916;-77
2022/12/26 07:06:35;;;;;;;;;;;12.50;1.00;;;;;;5042145;28;19912;-77
2022/12/26 07:09:18;;;;;;;;;;;12.50;1.00;;;;;;5047623;28;20253;-78
2022/12/26 07:11:48;;;;;;;;;;;12.50;1.00;;;;;;5040757;28;20383;-77
2022/12/26 07:14:14;;;;;;;;;;;12.40;1.00;;;;;;5041557;28;19917;-77
2022/12/26 07:16:47;;;;;;;;;;;12.40;1.00;;;;;;5043269;28;20038;-77
2022/12/26 07:19:13;;;;;;;;;;;12.40;1.00;;;;;;5048709;28;20012;-77
2022/12/26 07:21:47;;;;;;;;;;;12.50;1.00;;;;;;5047489;28;19913;-77
2022/12/26 07:24:18;;;;;;;;;;;12.50;1.00;;;;;;5034593;28;19963;-77
2022/12/26 07:26:48;;;;;;;;;;;12.50;1.00;;;;;;5041197;28;19916;-77
2022/12/26 07:29:17;;;;;;;;;;;12.40;1.00;;;;;;5053554;28;20319;-77
2022/12/26 07:31:43;;;;;;;;;;;12.40;1.00;;;;;;5035421;28;19916;-77
2022/12/26 07:34:29;;;;;;;;;;;12.50;1.00;;;;;;5042849;28;19913;-77
2022/12/26 07:37:29;;;;;;;;;;;12.40;1.00;;;;;;5039620;28;19925;-78
2022/12/26 07:39:56;;;;;;;;;;;12.40;1.00;;;;;;5043913;28;21530;-78
2022/12/26 07:42:23;;;;;;;;;;;12.50;1.00;;;;;;5054998;28;19912;-77
2022/12/26 07:47:52;;;;;;;;;;;12.50;1.00;;;;;;5038285;28;20276;-77
2022/12/26 07:50:18;;;;;;;;;;;12.40;1.00;;;;;;5040642;28;19909;-77
2022/12/26 07:52:47;;;;;;;;;;;12.40;1.00;;;;;;5046490;28;20399;-77
2022/12/26 07:55:23;;;;;;;;;;;12.20;1.00;;;;;;5039282;28;19916;-77
2022/12/26 07:58:23;;;;;;;;;;;12.20;1.00;;;;;;5033724;28;20008;-78
2022/12/26 08:00:53;;;;;;;;;;;12.20;1.00;;;;;;5032976;28;19913;-77
2022/12/26 08:03:19;;;;;;;;;;;12.10;1.00;;;;;;5048686;28;19999;-78
2022/12/26 08:06:11;;;;;;;;;;;11.90;1.00;;;;;;5045718;28;20025;-77
2022/12/26 08:08:37;;;;;;;;;;;11.90;1.00;;;;;;5043981;28;20368;-76
2022/12/26 08:11:04;;;;;;;;;;;11.80;1.00;;;;;;5041741;28;19991;-77
2022/12/26 08:13:35;;;;;;;;;;;11.90;1.00;;;;;;5036968;28;19959;-76
2022/12/26 08:16:05;;;;;;;;;;;11.90;1.00;;;;;;5037837;28;19921;-73
2022/12/26 08:18:31;;;;;;;;;;;11.90;1.00;;;;;;5055582;28;19917;-72
2022/12/26 08:20:56;;;;;;;;;;;11.90;1.00;;;;;;5033971;28;20000;-72
2022/12/26 08:23:22;;;;;;;;;;;11.90;1.00;;;;;;5033240;28;19909;-73
2022/12/26 08:25:53;;;;;;;;;;;11.90;1.00;;;;;;5033956;28;19993;-72
2022/12/26 08:28:19;;;;;;;;;;;12.00;1.00;;;;;;5043929;28;19970;-72
2022/12/26 08:30:45;;;;;;;;;;;12.00;1.00;;;;;;5038914;28;19945;-72
2022/12/26 08:33:11;;;;;;;;;;;11.90;1.00;;;;;;5034283;28;20360;-81
2022/12/26 08:35:49;;;;;;;;;;;11.90;1.00;;;;;;5040052;28;19917;-81
2022/12/26 08:38:41;;;;;;;;;;;11.80;3.50;;;;;;5048925;28;19924;-80
2022/12/26 08:41:11;;;;;;;;;;;11.80;6.10;;;;;;5043102;28;19925;-81
2022/12/26 08:44:13;;;;;;;;;;;11.80;6.80;;;;;;5037103;28;20304;-81
2022/12/26 08:46:41;;;;;;;;;;;11.90;6.10;;;;;;5035697;28;19913;-81
2022/12/26 08:49:17;;;;;;;;;;;11.80;6.30;;;;;;5040217;28;19917;-81
2022/12/26 08:52:05;;;;;;;;;;;11.80;6.30;;;;;;5037155;28;19909;-81
2022/12/26 08:54:41;;;;;;;;;;;11.90;6.60;;;;;;5053733;28;19913;-81
2022/12/26 08:57:11;;;;;;;;;;;11.90;6.40;;;;;;5050258;28;19959;-81
2022/12/26 09:00:11;;;;;;;;;;;11.80;7.50;;;;;;5046901;28;19952;-81
2022/12/26 09:02:41;;;;;;;;;;;11.80;8.00;;;;;;5037130;28;19917;-81
2022/12/26 09:05:23;;;;;;;;;;;11.80;9.70;;;;;;5048286;28;19909;-81
2022/12/26 09:08:05;;;;;;;;;;;11.80;10.00;;;;;;5038534;28;20006;-79
2022/12/26 09:10:41;;;;;;;;;;;11.80;9.60;;;;;;5041883;28;19932;-79
2022/12/26 09:13:19;;;;;;;;;;;11.80;12.80;;;;;;5041356;28;19916;-78
2022/12/26 09:16:17;;;;;;;;;;;11.70;14.40;;;;;;5048544;28;19999;-78
2022/12/26 09:18:43;;;;;;;;;;;11.70;18.40;;;;;;5038497;28;19913;-79
2022/12/26 09:21:12;;;;;;;;;;;11.70;21.00;;;;;;5055051;28;19939;-78
2022/12/26 09:23:38;;;;;;;;;;;11.80;21.50;;;;;;5047171;28;19909;-79
2022/12/26 09:26:04;;;;;;;;;;;11.80;19.30;;;;;;5041901;28;20349;-79
2022/12/26 09:28:30;;;;;;;;;;;11.90;18.30;;;;;;5049825;28;20380;-80
2022/12/26 09:31:08;;;;;;;;;;;11.90;17.40;;;;;;5042356;28;19912;-78
2022/12/26 09:36:37;;;;;;;;;;;11.90;11.90;;;;;;5037946;28;20051;-81
2022/12/26 09:39:03;;;;;;;;;;;12.00;13.80;;;;;;5050072;28;20014;-81
2022/12/26 09:41:48;;;;;;;;;;;12.00;11.30;;;;;;5052469;28;19909;-81
2022/12/26 09:44:35;;;;;;;;;;;11.90;13.40;;;;;;5045623;28;20016;-81
2022/12/26 09:47:30;;;;;;;;;;;11.90;14.10;;;;;;5047990;28;19909;-80
2022/12/26 09:49:59;;;;;;;;;;;12.10;12.60;;;;;;5046445;28;20538;-80
2022/12/26 09:52:41;;;;;;;;;;;12.00;10.70;;;;;;5045003;28;19979;-81
2022/12/26 09:55:41;;;;;;;;;;;12.00;7.20;;;;;;5047941;28;19920;-80
2022/12/26 10:04:26;;;;;;;;;;;12.10;1.00;;;;;;5045272;28;19915;-80
2022/12/26 10:07:15;;;;;;;;;;;12.20;1.00;;;;;;5049529;28;19915;-80
2022/12/26 10:09:41;;;;;;;;;;;12.40;1.00;;;;;;5013260;28;19921;-81
2022/12/26 10:12:29;;;;;;;;;;;12.40;1.00;;;;;;5013618;28;20354;-81
2022/12/26 10:15:25;;;;;;;;;;;12.30;1.00;;;;;;5001585;28;19957;-81
2022/12/26 10:18:23;;;;;;;;;;;12.40;1.00;;;;;;4919925;29;19915;-80
2022/12/26 10:21:23;;;;;;;;;;;12.40;1.00;;;;;;4935955;29;19911;-80
2022/12/26 10:23:56;;;;;;;;;;;12.40;1.00;;;;;;4947058;29;19911;-78
2022/12/26 10:26:30;;;;;;;;;;;12.50;1.00;;;;;;4935430;29;20021;-78
2022/12/26 10:29:05;;;;;;;;;;;12.60;1.00;;;;;;4920028;29;19911;-78
2022/12/26 10:31:35;;;;;;;;;;;12.60;1.00;;;;;;4920616;29;20339;-79
2022/12/26 10:34:15;;;;;;;;;;;12.60;1.00;;;;;;4935721;29;19982;-78
2022/12/26 10:36:45;;;;;;;;;;;12.60;1.00;;;;;;4933844;29;19918;-78
2022/12/26 10:39:33;;;;;;;;;;;12.30;1.00;;;;;;4928199;29;19922;-80
2022/12/26 10:42:25;;;;;;;;;;;12.20;1.00;;;;;;4934975;29;19911;-80
2022/12/26 10:45:11;;;;;;;;;;;12.20;1.00;;;;;;4917006;29;20409;-80
2022/12/26 10:47:59;;;;;;;;;;;12.30;1.00;;;;;;4948221;29;19915;-80
2022/12/26 10:50:46;;;;;;;;;;;12.30;1.00;;;;;;4942777;29;20017;-79
2022/12/26 10:53:13;;;;;;;;;;;12.30;1.00;;;;;;4939468;28;20641;-75
2022/12/26 10:55:39;;;;;;;;;;;12.30;1.00;;;;;;5001131;28;20010;-74
2022/12/26 10:58:05;;;;;;;;;;;12.30;1.00;;;;;;5010562;28;20460;-74
2022/12/26 11:00:35;;;;;;;;;;;12.30;1.00;;;;;;5004100;28;20266;-76
2022/12/26 11:03:11;;;;;;;;;;;12.20;1.00;;;;;;5008700;28;19971;-76
2022/12/26 11:05:43;;;;;;;;;;;12.30;1.00;;;;;;5008740;28;20357;-77
2022/12/26 11:08:19;;;;;;;;;;;12.30;1.00;;;;;;5004576;28;19909;-75
2022/12/26 11:11:00;;;;;;;;;;;12.30;1.00;;;;;;5012623;28;19914;-75
2022/12/26 11:13:26;;;;;;;;;;;12.40;1.00;;;;;;5013363;28;20401;-75
2022/12/26 11:16:06;;;;;;;;;;;12.60;1.00;;;;;;5020359;28;20016;-75
2022/12/26 11:18:49;;;;;;;;;;;12.60;1.00;;;;;;5007907;28;19917;-74
2022/12/26 11:21:17;;;;;;;;;;;12.60;1.00;;;;;;5010546;28;19920;-75
2022/12/26 11:24:05;;;;;;;;;;;12.60;1.00;;;;;;5034820;28;19916;-76
2022/12/26 11:26:47;;;;;;;;;;;12.70;1.00;;;;;;5042369;28;20007;-75
2022/12/26 11:29:19;;;;;;;;;;;12.70;1.00;;;;;;5042649;28;20008;-75
2022/12/26 11:32:05;;;;;;;;;;;12.90;1.00;;;;;;5048876;28;19908;-75
2022/12/26 11:34:36;;;;;;;;;;;12.90;1.00;;;;;;5044659;28;19909;-76
2022/12/26 11:37:06;;;;;;;;;;;12.90;1.00;;;;;;5035762;28;19929;-75
2022/12/26 11:39:33;;;;;;;;;;;12.90;1.00;;;;;;5039424;28;19921;-78
2022/12/26 11:42:26;;;;;;;;;;;13.00;1.00;;;;;;5033767;28;19916;-78
2022/12/26 11:44:54;;;;;;;;;;;13.10;1.00;;;;;;5032022;28;20434;-77
2022/12/26 11:50:53;;;;;;;;;;;12.90;1.00;;;;;;5038178;28;20280;-79
2022/12/26 11:53:21;;;;;;;;;;;12.90;1.00;;;;;;5039328;28;19916;-76
2022/12/26 11:56:16;;;;;;;;;;;12.90;1.00;;;;;;5052521;28;19920;-75
2022/12/26 11:58:41;;;;;;;;;;;12.80;1.00;;;;;;4994876;28;20305;-76
2022/12/26 12:01:18;;;;;;;;;;;12.90;1.00;;;;;;4995673;28;19910;-75
2022/12/26 12:03:45;;;;;;;;;;;12.70;1.00;;;;;;5009757;28;20008;-75
2022/12/26 12:06:42;;;;;;;;;;;12.70;1.00;;;;;;5011448;28;19922;-75
2022/12/26 12:09:17;;;;;;;;;;;12.70;1.00;;;;;;4992915;28;19910;-77
2022/12/26 12:12:06;;;;;;;;;;;12.70;1.00;;;;;;5006493;28;20281;-77
2022/12/26 12:15:08;;;;;;;;;;;12.70;1.00;;;;;;5012792;28;20285;-77
2022/12/26 12:17:49;;;;;;;;;;;12.90;1.00;;;;;;5004819;28;20008;-78
2022/12/26 12:20:42;;;;;;;;;;;12.80;1.00;;;;;;5015669;28;20004;-78
2022/12/26 12:23:28;;;;;;;;;;;13.00;1.00;;;;;;5016032;28;19917;-76
2022/12/26 12:26:22;;;;;;;;;;;12.90;1.00;;;;;;5015688;28;19916;-77
2022/12/26 12:28:53;;;;;;;;;;;12.90;1.00;;;;;;4996058;28;19913;-79
2022/12/26 12:31:23;;;;;;;;;;;13.00;1.00;;;;;;4995899;28;19918;-77
2022/12/26 12:33:55;;;;;;;;;;;13.00;1.00;;;;;;5004415;28;19909;-78
2022/12/26 12:36:41;;;;;;;;;;;13.00;1.00;;;;;;5035281;28;20015;-79
2022/12/26 12:39:13;;;;;;;;;;;13.00;1.00;;;;;;5040486;28;20008;-77
2022/12/26 12:41:41;;;;;;;;;;;13.00;1.00;;;;;;5054217;28;19913;-76
2022/12/26 12:44:20;;;;;;;;;;;13.00;1.00;;;;;;5053602;28;19913;-76
2022/12/26 12:47:14;;;;;;;;;;;13.00;1.00;;;;;;5046333;28;20447;-76
2022/12/26 12:50:14;;;;;;;;;;;13.00;1.00;;;;;;5036052;28;19913;-77
2022/12/26 12:52:41;;;;;;;;;;;13.00;1.00;;;;;;5011512;28;19914;-76
2022/12/26 12:55:07;;;;;;;;;;;13.00;1.00;;;;;;5015334;28;19945;-77
2022/12/26 12:57:39;;;;;;;;;;;13.10;1.00;;;;;;5012223;28;20052;-77
2022/12/26 13:00:23;;;;;;;;;;;13.00;1.00;;;;;;4992562;28;19975;-76
2022/12/26 13:03:11;;;;;;;;;;;12.90;1.00;;;;;;4999411;28;20435;-77
2022/12/26 13:05:52;;;;;;;;;;;12.90;1.00;;;;;;5014673;28;19913;-77
2022/12/26 13:08:24;;;;;;;;;;;12.90;1.00;;;;;;5012080;28;19914;-78
2022/12/26 13:11:01;;;;;;;;;;;12.80;1.00;;;;;;5014550;28;19910;-78
2022/12/26 13:16:54;;;;;;;;;;;12.90;1.00;;;;;;5007328;28;19913;-79
2022/12/26 13:19:42;;;;;;;;;;;12.90;1.00;;;;;;5032257;28;19917;-84
2022/12/26 13:22:13;;;;;;;;;;;12.80;1.00;;;;;;5012644;28;19914;-79
2022/12/26 13:24:42;;;;;;;;;;;12.70;1.00;;;;;;4995362;28;20024;-79
2022/12/26 13:27:29;;;;;;;;;;;12.70;1.00;;;;;;5010839;28;19913;-78
2022/12/26 13:29:55;;;;;;;;;;;12.80;1.00;;;;;;5038443;28;20323;-77
2022/12/26 13:32:25;;;;;;;;;;;12.80;1.00;;;;;;5037538;28;19917;-78
2022/12/26 13:35:04;;;;;;;;;;;12.80;1.00;;;;;;5050702;28;19917;-78
2022/12/26 13:37:48;;;;;;;;;;;12.70;1.00;;;;;;5038084;28;19913;-78
2022/12/26 13:40:22;;;;;;;;;;;12.80;1.00;;;;;;5039163;28;20534;-79
2022/12/26 13:45:53;;;;;;;;;;;12.80;1.00;;;;;;5045427;28;19962;-78
2022/12/26 13:48:26;;;;;;;;;;;12.70;1.00;;;;;;5035851;28;20382;-81
2022/12/26 13:51:01;;;;;;;;;;;12.70;1.00;;;;;;5043254;28;21608;-79
2022/12/26 13:53:31;;;;;;;;;;;12.70;1.00;;;;;;5037986;28;19952;-80
2022/12/26 13:56:02;;;;;;;;;;;12.60;1.00;;;;;;5039146;28;20436;-79
2022/12/26 13:58:30;;;;;;;;;;;12.70;1.00;;;;;;5041614;28;19920;-80
2022/12/26 14:01:18;;;;;;;;;;;12.70;1.00;;;;;;5040243;28;19913;-79
2022/12/26 14:04:06;;;;;;;;;;;12.80;1.00;;;;;;5057926;28;19932;-79
2022/12/26 14:06:36;;;;;;;;;;;12.80;1.00;;;;;;5035589;28;19909;-77
2022/12/26 14:09:01;;;;;;;;;;;12.80;1.00;;;;;;5049023;28;19913;-76
2022/12/26 14:11:41;;;;;;;;;;;12.80;1.00;;;;;;5048464;28;20375;-77
2022/12/26 14:14:30;;;;;;;;;;;12.80;1.00;;;;;;5036248;28;19998;-76
2022/12/26 14:20:12;;;;;;;;;;;12.80;1.00;;;;;;5037364;28;20035;-80
2022/12/26 14:23:00;;;;;;;;;;;12.80;1.00;;;;;;5044149;28;19919;-80
2022/12/26 14:25:42;;;;;;;;;;;12.80;1.00;;;;;;5039385;28;20004;-80
2022/12/26 14:28:12;;;;;;;;;;;12.90;1.00;;;;;;5054283;28;19913;-79
2022/12/26 14:31:06;;;;;;;;;;;12.90;1.00;;;;;;5043603;28;19920;-82
2022/12/26 14:33:45;;;;;;;;;;;12.80;1.00;;;;;;5035034;28;19914;-77
2022/12/26 14:36:36;;;;;;;;;;;12.50;1.00;;;;;;5034913;28;19971;-77
2022/12/26 14:39:20;;;;;;;;;;;12.40;1.00;;;;;;5040187;28;19921;-72
2022/12/26 14:44:49;;;;;;;;;;;11.70;1.00;;;;;;5046374;28;19927;-74
2022/12/26 14:47:33;;;;;;;;;;;11.40;1.00;;;;;;5046258;28;19913;-79
2022/12/26 14:53:30;;;;;;;;;;;11.10;3.00;;;;;;5041999;28;19916;-79
2022/12/26 14:56:00;;;;;;;;;;;11.10;12.10;;;;;;5047880;28;19909;-79
2022/12/26 14:58:48;;;;;;;;;;;11.00;18.70;;;;;;5033239;28;20020;-77
2022/12/26 15:01:42;;;;;;;;;;;11.00;25.20;;;;;;5034519;28;19917;-79
2022/12/26 15:04:42;;;;;;;;;;;11.00;27.80;;;;;;5037264;28;19909;-80
2022/12/26 15:07:42;;;;;;;;;;;10.90;25.70;;;;;;5037283;28;19935;-81
2022/12/26 15:13:22;;;;;;;;;;;10.80;32.70;;;;;;5052575;28;19919;-77
2022/12/26 15:19:06;;;;;;;;;;;10.70;42.60;;;;;;5038668;28;19948;-77
2022/12/26 15:21:38;;;;;;;;;;;10.70;42.50;;;;;;5048390;28;19913;-77
2022/12/26 15:24:30;;;;;;;;;;;10.70;42.50;;;;;;5050454;28;19916;-78
2022/12/26 15:27:24;;;;;;;;;;;10.70;42.50;;;;;;5051490;28;19962;-78
2022/12/26 15:30:06;;;;;;;;;;;10.60;42.40;;;;;;5039201;28;19913;-80
2022/12/26 15:32:54;;;;;;;;;;;10.60;42.40;;;;;;5048221;28;19913;-80
2022/12/26 15:35:38;;;;;;;;;;;10.50;35.90;;;;;;5032822;28;20024;-79
2022/12/26 15:38:30;;;;;;;;;;;10.40;31.90;;;;;;5032049;28;20003;-79
2022/12/26 15:44:30;;;;;;;;;;;10.20;42.10;;;;;;5044563;28;19913;-77
2022/12/26 15:47:12;;;;;;;;;;;10.10;26.50;;;;;;5038068;28;19913;-77
2022/12/26 15:49:54;;;;;;;;;;;9.90;25.10;;;;;;5016912;28;19909;-78
2022/12/26 15:52:32;;;;;;;;;;;9.80;22.60;;;;;;5031177;28;19948;-79
2022/12/26 15:55:24;;;;;;;;;;;9.70;26.80;;;;;;5015585;28;19913;-79
2022/12/26 15:57:52;;;;;;;;;;;9.70;33.00;;;;;;5020852;28;19948;-79
2022/12/26 16:00:25;;;;;;;;;;;9.60;42.70;;;;;;5035136;28;19909;-79
2022/12/26 16:09:12;;;;;;;;;;;9.50;42.30;;;;;;5017515;28;19920;-79
2022/12/26 16:11:55;;;;;;;;;;;9.50;42.30;;;;;;5023046;28;19920;-77
2022/12/26 16:14:29;;;;;;;;;;;9.50;42.40;;;;;;5031854;28;19917;-77
2022/12/26 16:17:20;;;;;;;;;;;9.40;42.30;;;;;;5031872;28;19909;-78
2022/12/26 16:19:54;;;;;;;;;;;9.40;42.60;;;;;;5044867;28;20020;-78
2022/12/26 16:22:47;;;;;;;;;;;9.30;42.40;;;;;;5050620;28;19913;-77
2022/12/26 16:25:22;;;;;;;;;;;9.30;51.60;;;;;;5041559;28;19913;-77
2022/12/26 16:27:51;;;;;;;;;;;9.30;52.00;;;;;;5039777;28;19916;-76
2022/12/26 16:30:19;;;;;;;;;;;9.40;42.30;;;;;;5053000;28;19912;-76
2022/12/26 16:32:45;;;;;;;;;;;9.40;42.30;;;;;;5055879;28;19916;-76
2022/12/26 16:35:47;;;;;;;;;;;9.40;42.30;;;;;;5039914;28;19923;-76
2022/12/26 16:38:26;;;;;;;;;;;9.40;42.50;;;;;;5011362;28;19987;-78
2022/12/26 16:41:01;;;;;;;;;;;9.50;42.60;;;;;;5014428;28;20386;-77
2022/12/26 16:43:42;;;;;;;;;;;9.50;36.60;;;;;;5003663;28;19914;-79
2022/12/26 16:46:13;;;;;;;;;;;9.50;19.90;;;;;;4992082;28;19910;-77
2022/12/26 16:48:43;;;;;;;;;;;9.50;16.60;;;;;;5003204;28;19920;-78
2022/12/26 16:51:38;;;;;;;;;;;9.50;12.90;;;;;;5010416;28;20021;-79
2022/12/26 16:54:19;;;;;;;;;;;9.50;12.50;;;;;;4970473;28;19914;-75
2022/12/26 16:57:05;;;;;;;;;;;9.40;12.30;;;;;;4956806;28;19934;-75
2022/12/26 16:59:37;;;;;;;;;;;9.40;14.60;;;;;;4973390;28;19917;-75
2022/12/26 17:02:03;;;;;;;;;;;9.30;19.00;;;;;;4979571;28;19910;-75
2022/12/26 17:04:29;;;;;;;;;;;9.30;20.60;;;;;;4976331;28;20261;-75
2022/12/26 17:07:02;;;;;;;;;;;9.30;22.00;;;;;;4962332;28;20309;-75
2022/12/26 17:09:29;;;;;;;;;;;9.20;33.70;;;;;;4968239;28;20437;-75
2022/12/26 17:12:06;;;;;;;;;;;9.20;46.20;;;;;;4971962;28;19914;-82
2022/12/26 17:14:45;;;;;;;;;;;9.20;42.20;;;;;;4956398;28;19910;-82
2022/12/26 17:17:36;;;;;;;;;;;9.20;42.10;;;;;;4966288;28;19918;-81
2022/12/26 17:26:15;;;;;;;;;;;8.90;41.80;;;;;;4963058;28;19945;-76
2022/12/26 17:28:48;;;;;;;;;;;8.90;41.80;;;;;;4966098;28;20597;-79
2022/12/26 17:31:33;;;;;;;;;;;8.90;41.90;;;;;;5021654;28;19909;-80
2022/12/26 17:34:02;;;;;;;;;;;9.00;42.00;;;;;;5049774;28;19913;-80
2022/12/26 17:36:30;;;;;;;;;;;9.00;42.00;;;;;;5044500;28;20342;-79
2022/12/26 17:39:11;;;;;;;;;;;8.90;42.00;;;;;;5044554;28;20284;-79
2022/12/26 17:41:55;;;;;;;;;;;8.90;51.10;;;;;;5036734;28;20000;-80
2022/12/26 17:47:27;;;;;;;;;;;9.00;54.30;;;;;;5051961;28;19920;-80
2022/12/26 17:50:24;;;;;;;;;;;9.00;47.00;;;;;;5040540;28;19914;-80
2022/12/26 17:53:00;;;;;;;;;;;8.90;41.90;;;;;;5043286;28;19913;-81
2022/12/26 17:55:30;;;;;;;;;;;8.90;41.90;;;;;;5050921;28;19932;-82
2022/12/26 17:58:18;;;;;;;;;;;8.90;46.30;;;;;;5048465;28;19991;-81
2022/12/26 18:01:00;;;;;;;;;;;8.80;48.70;;;;;;5053082;28;19913;-81
2022/12/26 18:03:26;;;;;;;;;;;8.80;49.80;;;;;;5051575;28;20353;-81
2022/12/26 18:06:00;;;;;;;;;;;8.70;51.30;;;;;;5035718;28;20008;-81
2022/12/26 18:08:31;;;;;;;;;;;8.60;52.30;;;;;;5053215;28;19913;-80
2022/12/26 18:11:18;;;;;;;;;;;8.50;57.80;;;;;;5049142;28;19916;-80
2022/12/26 18:14:12;;;;;;;;;;;8.50;65.60;;;;;;5044921;28;19946;-81
2022/12/26 18:19:56;;;;;;;;;;;8.60;71.40;;;;;;5041735;28;19967;-82
2022/12/26 18:22:30;;;;;;;;;;;8.60;66.40;;;;;;5036390;28;19921;-81
2022/12/26 18:27:59;;;;;;;;;;;8.60;58.40;;;;;;5048920;28;19920;-83
2022/12/26 18:30:30;;;;;;;;;;;8.60;58.90;;;;;;5040901;28;19913;-82
2022/12/26 18:32:56;;;;;;;;;;;8.50;54.40;;;;;;5033968;28;19963;-82
2022/12/26 18:35:54;;;;;;;;;;;8.50;50.70;;;;;;5039915;28;19949;-82
2022/12/26 18:38:30;;;;;;;;;;;8.60;45.60;;;;;;5035322;28;19917;-82
2022/12/26 18:40:59;;;;;;;;;;;8.50;41.60;;;;;;5047219;28;19921;-79
2022/12/26 18:43:36;;;;;;;;;;;8.60;41.70;;;;;;5053869;28;19912;-82
2022/12/26 18:49:05;;;;;;;;;;;8.70;41.80;;;;;;5039267;28;19920;-83
2022/12/26 18:52:00;;;;;;;;;;;8.60;41.60;;;;;;5034821;28;19917;-86
2022/12/26 18:54:25;;;;;;;;;;;8.60;41.60;;;;;;5052355;28;19959;-85
2022/12/26 18:57:00;;;;;;;;;;;8.40;45.60;;;;;;5065755;28;19920;-85
2022/12/26 18:59:30;;;;;;;;;;;8.40;41.60;;;;;;5035199;28;19928;-79